sensor_id;sensor_type;location;lat;lon;timestamp;pressure;altitude;pressure_sealevel;temperature;humidity
50302;BME280;36550;50.472;19.744;2023-03-26T00:02:09;97061.05;;;6.79;75.63
50302;BME280;36550;50.472;19.744;2023-03-26T00:04:55;97060.91;;;6.80;75.72
50302;BME280;36550;50.472;19.744;2023-03-26T00:07:41;97062.66;;;6.81;75.52
50302;BME280;36550;50.472;19.744;2023-03-26T00:10:25;97062.94;;;6.82;75.77
50302;BME280;36550;50.472;19.744;2023-03-26T00:13:09;97060.59;;;6.83;75.43
50302;BME280;36550;50.472;19.744;2023-03-26T00:15:54;97057.49;;;6.81;75.38
50302;BME280;36550;50.472;19.744;2023-03-26T00:18:39;97056.19;;;6.79;75.61
50302;BME280;36550;50.472;19.744;2023-03-26T00:21:27;97058.05;;;6.78;75.35
50302;BME280;36550;50.472;19.744;2023-03-26T00:24:18;97051.91;;;6.75;75.54
50302;BME280;36550;50.472;19.744;2023-03-26T00:27:02;97053.81;;;6.77;75.58
50302;BME280;36550;50.472;19.744;2023-03-26T00:29:48;97048.84;;;6.79;75.25
50302;BME280;36550;50.472;19.744;2023-03-26T00:32:31;97047.80;;;6.81;75.28
50302;BME280;36550;50.472;19.744;2023-03-26T00:35:15;97045.83;;;6.85;75.16
50302;BME280;36550;50.472;19.744;2023-03-26T00:38:00;97042.14;;;6.89;75.42
50302;BME280;36550;50.472;19.744;2023-03-26T00:40:44;97042.08;;;6.91;75.27
50302;BME280;36550;50.472;19.744;2023-03-26T00:43:32;97034.01;;;6.92;75.28
50302;BME280;36550;50.472;19.744;2023-03-26T00:46:16;97038.13;;;6.92;75.15
50302;BME280;36550;50.472;19.744;2023-03-26T00:49:01;97041.08;;;6.93;75.16
50302;BME280;36550;50.472;19.744;2023-03-26T00:51:47;97042.27;;;6.93;75.26
50302;BME280;36550;50.472;19.744;2023-03-26T00:54:31;97040.51;;;6.91;75.33
50302;BME280;36550;50.472;19.744;2023-03-26T00:57:15;97035.23;;;6.87;75.54
50302;BME280;36550;50.472;19.744;2023-03-26T00:59:59;97036.69;;;6.81;75.78
50302;BME280;36550;50.472;19.744;2023-03-26T01:02:57;97029.51;;;6.73;76.22
50302;BME280;36550;50.472;19.744;2023-03-26T01:05:43;97025.48;;;6.67;76.24
50302;BME280;36550;50.472;19.744;2023-03-26T01:08:34;97021.31;;;6.59;76.33
50302;BME280;36550;50.472;19.744;2023-03-26T01:11:20;97019.36;;;6.52;76.68
50302;BME280;36550;50.472;19.744;2023-03-26T01:14:09;97014.78;;;6.49;77.02
50302;BME280;36550;50.472;19.744;2023-03-26T01:16:59;97017.49;;;6.47;77.18
50302;BME280;36550;50.472;19.744;2023-03-26T01:22:28;97015.36;;;6.50;77.82
50302;BME280;36550;50.472;19.744;2023-03-26T01:25:11;97014.77;;;6.51;78.06
50302;BME280;36550;50.472;19.744;2023-03-26T01:27:56;97015.27;;;6.52;77.90
50302;BME280;36550;50.472;19.744;2023-03-26T01:30:49;97014.25;;;6.51;77.85
50302;BME280;36550;50.472;19.744;2023-03-26T01:33:36;97009.85;;;6.48;77.51
50302;BME280;36550;50.472;19.744;2023-03-26T01:36:31;97004.96;;;6.45;77.51
50302;BME280;36550;50.472;19.744;2023-03-26T01:42:11;97001.23;;;6.41;77.63
50302;BME280;36550;50.472;19.744;2023-03-26T01:44:59;96998.02;;;6.39;77.55
50302;BME280;36550;50.472;19.744;2023-03-26T01:47:46;96996.20;;;6.37;77.42
50302;BME280;36550;50.472;19.744;2023-03-26T01:50:30;96995.83;;;6.34;76.94
50302;BME280;36550;50.472;19.744;2023-03-26T01:53:14;96999.27;;;6.31;77.01
50302;BME280;36550;50.472;19.744;2023-03-26T01:56:01;97001.40;;;6.30;77.01
50302;BME280;36550;50.472;19.744;2023-03-26T02:02:06;97000.77;;;6.32;77.55
50302;BME280;36550;50.472;19.744;2023-03-26T02:05:36;97004.17;;;6.36;77.71
50302;BME280;36550;50.472;19.744;2023-03-26T02:08:43;96999.05;;;6.39;77.84
50302;BME280;36550;50.472;19.744;2023-03-26T02:11:10;96994.98;;;6.42;78.11
50302;BME280;36550;50.472;19.744;2023-03-26T02:13:55;96994.54;;;6.45;77.82
50302;BME280;36550;50.472;19.744;2023-03-26T02:16:40;96997.07;;;6.47;77.85
50302;BME280;36550;50.472;19.744;2023-03-26T02:19:29;96997.52;;;6.46;77.37
50302;BME280;36550;50.472;19.744;2023-03-26T02:22:13;96993.86;;;6.43;77.27
50302;BME280;36550;50.472;19.744;2023-03-26T02:24:58;96999.34;;;6.41;77.48
50302;BME280;36550;50.472;19.744;2023-03-26T02:27:42;96993.44;;;6.42;77.86
50302;BME280;36550;50.472;19.744;2023-03-26T02:30:27;96997.07;;;6.44;78.02
50302;BME280;36550;50.472;19.744;2023-03-26T02:33:12;96996.67;;;6.46;78.06
50302;BME280;36550;50.472;19.744;2023-03-26T02:35:58;96992.33;;;6.47;78.32
50302;BME280;36550;50.472;19.744;2023-03-26T02:38:44;96990.69;;;6.49;78.42
50302;BME280;36550;50.472;19.744;2023-03-26T02:41:30;96990.33;;;6.52;78.24
50302;BME280;36550;50.472;19.744;2023-03-26T02:44:14;96992.02;;;6.55;78.58
50302;BME280;36550;50.472;19.744;2023-03-26T02:46:58;96989.67;;;6.55;78.75
50302;BME280;36550;50.472;19.744;2023-03-26T02:49:42;96997.16;;;6.55;78.81
50302;BME280;36550;50.472;19.744;2023-03-26T02:52:27;97000.23;;;6.54;78.65
50302;BME280;36550;50.472;19.744;2023-03-26T02:55:11;97001.19;;;6.52;78.73
50302;BME280;36550;50.472;19.744;2023-03-26T02:57:55;96997.00;;;6.49;78.72
50302;BME280;36550;50.472;19.744;2023-03-26T03:00:40;97000.42;;;6.45;78.58
50302;BME280;36550;50.472;19.744;2023-03-26T03:03:24;97001.28;;;6.41;78.88
50302;BME280;36550;50.472;19.744;2023-03-26T03:06:09;97008.70;;;6.40;79.23
50302;BME280;36550;50.472;19.744;2023-03-26T03:08:53;97012.73;;;6.43;79.51
50302;BME280;36550;50.472;19.744;2023-03-26T03:11:38;97023.41;;;6.45;80.46
50302;BME280;36550;50.472;19.744;2023-03-26T03:14:22;97015.77;;;6.44;80.76
50302;BME280;36550;50.472;19.744;2023-03-26T03:17:08;97012.55;;;6.38;81.21
50302;BME280;36550;50.472;19.744;2023-03-26T03:19:52;97018.40;;;6.34;81.15
50302;BME280;36550;50.472;19.744;2023-03-26T03:22:36;97022.94;;;6.31;80.96
50302;BME280;36550;50.472;19.744;2023-03-26T03:25:21;97017.56;;;6.28;80.95
50302;BME280;36550;50.472;19.744;2023-03-26T03:28:09;97014.73;;;6.25;81.66
50302;BME280;36550;50.472;19.744;2023-03-26T03:30:53;97002.77;;;6.24;81.84
50302;BME280;36550;50.472;19.744;2023-03-26T03:33:40;96990.48;;;6.24;81.74
50302;BME280;36550;50.472;19.744;2023-03-26T03:36:25;96985.75;;;6.27;81.03
50302;BME280;36550;50.472;19.744;2023-03-26T03:39:13;96984.77;;;6.30;81.12
50302;BME280;36550;50.472;19.744;2023-03-26T03:41:58;96983.86;;;6.31;81.12
50302;BME280;36550;50.472;19.744;2023-03-26T03:44:50;96984.74;;;6.31;80.94
50302;BME280;36550;50.472;19.744;2023-03-26T03:47:34;96983.95;;;6.31;81.03
50302;BME280;36550;50.472;19.744;2023-03-26T03:50:18;96979.81;;;6.30;81.08
50302;BME280;36550;50.472;19.744;2023-03-26T03:53:02;96981.92;;;6.26;81.04
50302;BME280;36550;50.472;19.744;2023-03-26T03:55:49;96987.17;;;6.22;81.28
50302;BME280;36550;50.472;19.744;2023-03-26T03:58:36;96980.49;;;6.19;81.20
50302;BME280;36550;50.472;19.744;2023-03-26T04:01:21;96982.79;;;6.17;81.32
50302;BME280;36550;50.472;19.744;2023-03-26T04:04:07;96985.17;;;6.13;81.57
50302;BME280;36550;50.472;19.744;2023-03-26T04:06:51;96987.44;;;6.09;81.41
50302;BME280;36550;50.472;19.744;2023-03-26T04:09:35;96992.67;;;6.03;81.95
50302;BME280;36550;50.472;19.744;2023-03-26T04:12:21;96992.31;;;5.96;82.38
50302;BME280;36550;50.472;19.744;2023-03-26T04:15:06;96994.30;;;5.92;82.79
50302;BME280;36550;50.472;19.744;2023-03-26T04:17:52;96992.02;;;5.90;82.39
50302;BME280;36550;50.472;19.744;2023-03-26T04:20:37;96990.69;;;5.88;82.56
50302;BME280;36550;50.472;19.744;2023-03-26T04:23:23;96990.17;;;5.88;82.78
50302;BME280;36550;50.472;19.744;2023-03-26T04:26:11;96989.89;;;5.90;82.52
50302;BME280;36550;50.472;19.744;2023-03-26T04:28:57;96984.94;;;5.92;82.47
50302;BME280;36550;50.472;19.744;2023-03-26T04:31:44;96982.98;;;5.91;82.18
50302;BME280;36550;50.472;19.744;2023-03-26T04:34:29;96975.92;;;5.87;82.14
50302;BME280;36550;50.472;19.744;2023-03-26T04:37:25;96975.14;;;5.82;81.77
50302;BME280;36550;50.472;19.744;2023-03-26T04:40:12;96978.38;;;5.76;82.00
50302;BME280;36550;50.472;19.744;2023-03-26T04:43:00;96978.45;;;5.76;82.20
50302;BME280;36550;50.472;19.744;2023-03-26T04:45:45;96970.58;;;5.77;82.58
50302;BME280;36550;50.472;19.744;2023-03-26T04:48:30;96974.57;;;5.82;82.52
50302;BME280;36550;50.472;19.744;2023-03-26T04:51:14;96980.06;;;5.88;82.47
50302;BME280;36550;50.472;19.744;2023-03-26T04:54:01;96976.80;;;5.96;82.23
50302;BME280;36550;50.472;19.744;2023-03-26T04:56:58;96974.86;;;6.06;82.13
50302;BME280;36550;50.472;19.744;2023-03-26T04:59:44;96976.27;;;6.16;82.01
50302;BME280;36550;50.472;19.744;2023-03-26T05:02:28;96977.41;;;6.24;81.75
50302;BME280;36550;50.472;19.744;2023-03-26T05:05:12;96976.35;;;6.28;81.51
50302;BME280;36550;50.472;19.744;2023-03-26T05:07:58;96978.81;;;6.29;81.33
50302;BME280;36550;50.472;19.744;2023-03-26T05:10:42;96975.16;;;6.31;81.09
50302;BME280;36550;50.472;19.744;2023-03-26T05:13:27;96977.77;;;6.35;80.88
50302;BME280;36550;50.472;19.744;2023-03-26T05:16:11;96979.48;;;6.43;80.85
50302;BME280;36550;50.472;19.744;2023-03-26T05:18:56;96987.79;;;6.58;81.01
50302;BME280;36550;50.472;19.744;2023-03-26T05:21:40;96989.21;;;6.72;80.95
50302;BME280;36550;50.472;19.744;2023-03-26T05:24:24;96997.56;;;6.81;80.87
50302;BME280;36550;50.472;19.744;2023-03-26T05:27:16;97002.13;;;6.89;80.87
50302;BME280;36550;50.472;19.744;2023-03-26T05:30:04;97004.22;;;6.95;80.69
50302;BME280;36550;50.472;19.744;2023-03-26T05:32:48;97010.72;;;6.94;80.45
50302;BME280;36550;50.472;19.744;2023-03-26T05:35:32;97006.13;;;6.88;80.50
50302;BME280;36550;50.472;19.744;2023-03-26T05:38:16;97007.02;;;6.78;80.58
50302;BME280;36550;50.472;19.744;2023-03-26T05:41:02;97007.70;;;6.69;80.34
50302;BME280;36550;50.472;19.744;2023-03-26T05:43:46;96989.05;;;6.68;80.42
50302;BME280;36550;50.472;19.744;2023-03-26T05:46:32;96981.42;;;6.67;80.58
50302;BME280;36550;50.472;19.744;2023-03-26T05:49:16;96983.27;;;6.69;80.59
50302;BME280;36550;50.472;19.744;2023-03-26T05:52:00;96981.32;;;6.79;80.59
50302;BME280;36550;50.472;19.744;2023-03-26T05:54:44;96984.52;;;6.97;80.74
50302;BME280;36550;50.472;19.744;2023-03-26T05:57:30;96981.91;;;7.13;80.98
50302;BME280;36550;50.472;19.744;2023-03-26T06:00:15;96986.63;;;7.28;80.75
50302;BME280;36550;50.472;19.744;2023-03-26T06:02:59;96987.69;;;7.40;80.54
50302;BME280;36550;50.472;19.744;2023-03-26T06:05:43;96984.95;;;7.47;80.30
50302;BME280;36550;50.472;19.744;2023-03-26T06:08:27;96990.70;;;7.56;80.14
50302;BME280;36550;50.472;19.744;2023-03-26T06:11:12;96990.14;;;7.69;80.08
50302;BME280;36550;50.472;19.744;2023-03-26T06:13:57;96990.61;;;7.80;80.02
50302;BME280;36550;50.472;19.744;2023-03-26T06:16:41;96993.20;;;7.87;79.85
50302;BME280;36550;50.472;19.744;2023-03-26T06:19:25;96990.86;;;7.92;79.40
50302;BME280;36550;50.472;19.744;2023-03-26T06:22:09;96988.97;;;8.00;79.04
50302;BME280;36550;50.472;19.744;2023-03-26T06:24:55;96988.33;;;8.03;78.95
50302;BME280;36550;50.472;19.744;2023-03-26T06:27:39;96986.48;;;7.98;78.63
50302;BME280;36550;50.472;19.744;2023-03-26T06:30:25;96996.45;;;7.88;78.43
50302;BME280;36550;50.472;19.744;2023-03-26T06:33:10;96992.09;;;7.82;78.35
50302;BME280;36550;50.472;19.744;2023-03-26T06:35:54;96990.53;;;7.86;78.47
50302;BME280;36550;50.472;19.744;2023-03-26T06:38:38;96989.08;;;8.00;78.76
50302;BME280;36550;50.472;19.744;2023-03-26T06:41:25;96984.55;;;8.18;78.71
50302;BME280;36550;50.472;19.744;2023-03-26T06:44:09;96985.45;;;8.34;78.42
50302;BME280;36550;50.472;19.744;2023-03-26T06:46:54;96986.66;;;8.47;77.96
50302;BME280;36550;50.472;19.744;2023-03-26T06:49:38;96987.49;;;8.61;77.81
50302;BME280;36550;50.472;19.744;2023-03-26T06:52:23;96990.56;;;8.71;77.50
50302;BME280;36550;50.472;19.744;2023-03-26T06:55:07;96983.53;;;8.81;77.48
50302;BME280;36550;50.472;19.744;2023-03-26T06:57:53;96978.35;;;8.92;77.10
50302;BME280;36550;50.472;19.744;2023-03-26T07:00:38;96978.76;;;9.23;77.04
50302;BME280;36550;50.472;19.744;2023-03-26T07:03:22;96983.73;;;9.62;76.45
50302;BME280;36550;50.472;19.744;2023-03-26T07:06:07;96986.61;;;9.89;75.60
50302;BME280;36550;50.472;19.744;2023-03-26T07:08:51;96987.34;;;10.04;74.78
50302;BME280;36550;50.472;19.744;2023-03-26T07:11:35;96993.95;;;10.12;74.54
50302;BME280;36550;50.472;19.744;2023-03-26T07:14:19;96991.45;;;10.19;73.79
50302;BME280;36550;50.472;19.744;2023-03-26T07:17:03;96994.98;;;10.24;73.79
50302;BME280;36550;50.472;19.744;2023-03-26T07:19:46;96987.23;;;10.31;72.47
50302;BME280;36550;50.472;19.744;2023-03-26T07:22:31;96989.44;;;10.34;72.54
50302;BME280;36550;50.472;19.744;2023-03-26T07:25:16;96994.18;;;10.41;72.95
50302;BME280;36550;50.472;19.744;2023-03-26T07:28:44;96988.23;;;10.48;72.39
50302;BME280;36550;50.472;19.744;2023-03-26T07:31:32;96987.09;;;10.57;71.58
50302;BME280;36550;50.472;19.744;2023-03-26T07:37:00;96984.03;;;10.82;71.60
50302;BME280;36550;50.472;19.744;2023-03-26T07:45:40;96983.45;;;10.77;69.81
50302;BME280;36550;50.472;19.744;2023-03-26T07:48:25;96984.52;;;10.66;69.99
50302;BME280;36550;50.472;19.744;2023-03-26T07:51:12;96983.41;;;10.56;69.70
50302;BME280;36550;50.472;19.744;2023-03-26T07:53:57;96986.21;;;10.40;69.04
50302;BME280;36550;50.472;19.744;2023-03-26T07:56:50;96985.11;;;10.30;69.47
50302;BME280;36550;50.472;19.744;2023-03-26T07:59:51;96987.73;;;10.44;70.26
50302;BME280;36550;50.472;19.744;2023-03-26T08:05:29;96994.58;;;10.82;69.81
50302;BME280;36550;50.472;19.744;2023-03-26T08:11:16;96999.88;;;10.75;70.03
50302;BME280;36550;50.472;19.744;2023-03-26T08:14:26;96999.95;;;10.68;69.80
50302;BME280;36550;50.472;19.744;2023-03-26T08:17:13;97002.08;;;10.73;69.89
50302;BME280;36550;50.472;19.744;2023-03-26T08:20:02;97002.77;;;10.88;70.16
50302;BME280;36550;50.472;19.744;2023-03-26T08:22:51;97003.40;;;10.83;69.56
50302;BME280;36550;50.472;19.744;2023-03-26T08:25:46;97007.36;;;10.66;69.53
50302;BME280;36550;50.472;19.744;2023-03-26T08:28:41;97018.66;;;10.37;69.58
50302;BME280;36550;50.472;19.744;2023-03-26T08:31:36;97019.98;;;10.08;69.69
50302;BME280;36550;50.472;19.744;2023-03-26T08:34:21;97016.27;;;9.78;69.88
50302;BME280;36550;50.472;19.744;2023-03-26T08:37:06;97024.75;;;9.55;70.30
50302;BME280;36550;50.472;19.744;2023-03-26T08:39:50;97023.13;;;9.39;71.05
50302;BME280;36550;50.472;19.744;2023-03-26T08:48:38;96998.38;;;9.66;72.30
50302;BME280;36550;50.472;19.744;2023-03-26T08:57:16;96984.11;;;9.94;72.63
50302;BME280;36550;50.472;19.744;2023-03-26T09:06:14;96965.02;;;10.17;72.70
50302;BME280;36550;50.472;19.744;2023-03-26T09:09:25;96966.86;;;10.20;71.86
50302;BME280;36550;50.472;19.744;2023-03-26T09:33:10;96957.25;;;12.16;63.16
50302;BME280;36550;50.472;19.744;2023-03-26T09:41:43;96953.52;;;12.80;61.23
50302;BME280;36550;50.472;19.744;2023-03-26T09:44:54;96946.78;;;12.80;61.22
50302;BME280;36550;50.472;19.744;2023-03-26T09:50:53;96943.40;;;12.96;59.69
50302;BME280;36550;50.472;19.744;2023-03-26T09:56:47;96940.75;;;13.17;58.10
50302;BME280;36550;50.472;19.744;2023-03-26T09:59:37;96940.21;;;13.44;58.01
50302;BME280;36550;50.472;19.744;2023-03-26T10:08:33;96939.97;;;14.04;53.86
50302;BME280;36550;50.472;19.744;2023-03-26T10:14:21;96928.04;;;14.04;53.52
50302;BME280;36550;50.472;19.744;2023-03-26T10:26:09;96926.56;;;14.29;51.49
50302;BME280;36550;50.472;19.744;2023-03-26T10:31:54;96929.77;;;14.10;50.46
50302;BME280;36550;50.472;19.744;2023-03-26T10:37:45;96920.77;;;14.12;51.59
50302;BME280;36550;50.472;19.744;2023-03-26T10:43:25;96926.84;;;14.12;52.45
50302;BME280;36550;50.472;19.744;2023-03-26T10:55:13;96927.98;;;14.18;51.86
50302;BME280;36550;50.472;19.744;2023-03-26T10:57:59;96930.15;;;14.09;51.33
50302;BME280;36550;50.472;19.744;2023-03-26T11:00:54;96929.06;;;14.12;51.73
50302;BME280;36550;50.472;19.744;2023-03-26T11:26:17;96927.48;;;14.02;53.44
50302;BME280;36550;50.472;19.744;2023-03-26T11:31:57;96915.59;;;14.21;52.51
50302;BME280;36550;50.472;19.744;2023-03-26T11:37:45;96909.80;;;14.00;51.97
50302;BME280;36550;50.472;19.744;2023-03-26T11:40:40;96907.91;;;13.82;52.60
50302;BME280;36550;50.472;19.744;2023-03-26T11:43:33;96899.06;;;13.67;53.46
50302;BME280;36550;50.472;19.744;2023-03-26T11:46:19;96892.36;;;13.58;54.31
50302;BME280;36550;50.472;19.744;2023-03-26T11:49:05;96890.11;;;13.46;53.67
50302;BME280;36550;50.472;19.744;2023-03-26T11:51:51;96884.27;;;13.26;53.33
50302;BME280;36550;50.472;19.744;2023-03-26T11:54:36;96886.42;;;13.12;53.21
50302;BME280;36550;50.472;19.744;2023-03-26T11:57:21;96880.70;;;13.04;53.22
50302;BME280;36550;50.472;19.744;2023-03-26T12:00:14;96879.77;;;13.03;54.18
50302;BME280;36550;50.472;19.744;2023-03-26T12:03:19;96874.70;;;13.05;54.83
50302;BME280;36550;50.472;19.744;2023-03-26T12:06:09;96872.10;;;13.06;54.50
50302;BME280;36550;50.472;19.744;2023-03-26T12:09:15;96872.34;;;12.97;52.94
50302;BME280;36550;50.472;19.744;2023-03-26T12:12:01;96864.13;;;12.85;52.87
50302;BME280;36550;50.472;19.744;2023-03-26T12:14:46;96866.70;;;12.79;52.88
50302;BME280;36550;50.472;19.744;2023-03-26T12:17:35;96862.84;;;12.75;52.72
50302;BME280;36550;50.472;19.744;2023-03-26T12:23:12;96859.68;;;12.74;53.02
50302;BME280;36550;50.472;19.744;2023-03-26T12:26:18;96860.17;;;12.71;53.21
50302;BME280;36550;50.472;19.744;2023-03-26T12:29:05;96857.99;;;12.68;52.78
50302;BME280;36550;50.472;19.744;2023-03-26T12:34:36;96859.52;;;12.56;51.43
50302;BME280;36550;50.472;19.744;2023-03-26T12:37:36;96853.77;;;12.50;50.80
50302;BME280;36550;50.472;19.744;2023-03-26T12:43:22;96847.17;;;12.90;50.72
50302;BME280;36550;50.472;19.744;2023-03-26T12:46:19;96841.84;;;13.08;50.78
50302;BME280;36550;50.472;19.744;2023-03-26T12:49:04;96829.16;;;13.17;49.98
50302;BME280;36550;50.472;19.744;2023-03-26T12:51:51;96824.42;;;13.32;50.75
50302;BME280;36550;50.472;19.744;2023-03-26T12:54:42;96822.02;;;13.49;51.48
50302;BME280;36550;50.472;19.744;2023-03-26T12:57:32;96820.77;;;13.62;51.27
50302;BME280;36550;50.472;19.744;2023-03-26T13:00:39;96814.90;;;13.75;51.61
50302;BME280;36550;50.472;19.744;2023-03-26T13:03:33;96815.26;;;13.88;50.32
50302;BME280;36550;50.472;19.744;2023-03-26T13:06:33;96810.93;;;14.11;50.28
50302;BME280;36550;50.472;19.744;2023-03-26T13:23:37;96792.23;;;14.39;46.97
50302;BME280;36550;50.472;19.744;2023-03-26T13:35:41;96776.05;;;14.35;48.49
50302;BME280;36550;50.472;19.744;2023-03-26T13:38:35;96772.59;;;14.27;48.33
50302;BME280;36550;50.472;19.744;2023-03-26T13:47:19;96768.46;;;14.35;47.55
50302;BME280;36550;50.472;19.744;2023-03-26T13:50:06;96765.88;;;14.34;47.39
50302;BME280;36550;50.472;19.744;2023-03-26T13:52:58;96765.35;;;14.31;48.25
50302;BME280;36550;50.472;19.744;2023-03-26T13:55:48;96765.27;;;14.19;48.04
50302;BME280;36550;50.472;19.744;2023-03-26T14:01:33;96763.84;;;14.05;48.71
50302;BME280;36550;50.472;19.744;2023-03-26T14:12:54;96754.24;;;13.95;48.03
50302;BME280;36550;50.472;19.744;2023-03-26T14:15:40;96755.45;;;13.95;48.35
50302;BME280;36550;50.472;19.744;2023-03-26T14:21:35;96753.64;;;13.93;48.98
50302;BME280;36550;50.472;19.744;2023-03-26T14:24:26;96758.46;;;13.95;49.31
50302;BME280;36550;50.472;19.744;2023-03-26T14:27:23;96762.63;;;13.88;48.77
50302;BME280;36550;50.472;19.744;2023-03-26T14:30:27;96761.22;;;13.76;49.07
50302;BME280;36550;50.472;19.744;2023-03-26T14:33:23;96757.33;;;13.71;49.84
50302;BME280;36550;50.472;19.744;2023-03-26T14:42:01;96760.11;;;13.56;49.29
50302;BME280;36550;50.472;19.744;2023-03-26T14:44:58;96764.16;;;13.57;49.44
50302;BME280;36550;50.472;19.744;2023-03-26T14:51:08;96764.36;;;13.53;49.00
50302;BME280;36550;50.472;19.744;2023-03-26T14:53:59;96767.28;;;13.47;48.47
50302;BME280;36550;50.472;19.744;2023-03-26T15:11:49;96761.84;;;12.76;49.72
50302;BME280;36550;50.472;19.744;2023-03-26T15:40:46;96737.81;;;12.78;50.85
50302;BME280;36550;50.472;19.744;2023-03-26T15:49:39;96735.87;;;12.87;51.44
50302;BME280;36550;50.472;19.744;2023-03-26T15:52:26;96739.96;;;12.84;51.66
50302;BME280;36550;50.472;19.744;2023-03-26T16:00:53;96738.70;;;12.46;51.73
50302;BME280;36550;50.472;19.744;2023-03-26T16:03:38;96746.11;;;12.29;52.04
50302;BME280;36550;50.472;19.744;2023-03-26T16:06:35;96748.90;;;12.10;52.27
50302;BME280;36550;50.472;19.744;2023-03-26T16:09:26;96752.05;;;11.83;53.73
50302;BME280;36550;50.472;19.744;2023-03-26T16:24:22;96812.84;;;10.41;59.21
50302;BME280;36550;50.472;19.744;2023-03-26T16:30:01;96809.89;;;9.75;61.59
50302;BME280;36550;50.472;19.744;2023-03-26T16:32:53;96774.21;;;9.39;63.63
50302;BME280;36550;50.472;19.744;2023-03-26T16:38:22;96731.21;;;9.04;64.89
50302;BME280;36550;50.472;19.744;2023-03-26T16:41:14;96733.75;;;8.89;65.39
50302;BME280;36550;50.472;19.744;2023-03-26T16:49:58;96729.66;;;8.86;64.31
50302;BME280;36550;50.472;19.744;2023-03-26T16:55:41;96734.77;;;8.81;63.67
50302;BME280;36550;50.472;19.744;2023-03-26T17:01:31;96728.84;;;8.68;64.37
50302;BME280;36550;50.472;19.744;2023-03-26T17:04:18;96723.54;;;8.56;64.07
50302;BME280;36550;50.472;19.744;2023-03-26T17:07:10;96722.42;;;8.45;64.30
50302;BME280;36550;50.472;19.744;2023-03-26T17:18:58;96730.44;;;7.82;65.27
50302;BME280;36550;50.472;19.744;2023-03-26T17:21:53;96731.23;;;7.66;65.76
50302;BME280;36550;50.472;19.744;2023-03-26T17:24:44;96728.36;;;7.50;66.13
50302;BME280;36550;50.472;19.744;2023-03-26T17:27:45;96728.27;;;7.37;65.74
50302;BME280;36550;50.472;19.744;2023-03-26T17:33:21;96731.58;;;7.14;65.66
50302;BME280;36550;50.472;19.744;2023-03-26T17:39:16;96729.54;;;6.75;67.70
50302;BME280;36550;50.472;19.744;2023-03-26T17:45:00;96729.05;;;6.54;67.74
50302;BME280;36550;50.472;19.744;2023-03-26T17:47:47;96730.17;;;6.42;67.34
50302;BME280;36550;50.472;19.744;2023-03-26T17:50:34;96731.96;;;6.32;67.62
50302;BME280;36550;50.472;19.744;2023-03-26T17:53:27;96731.08;;;6.22;67.81
50302;BME280;36550;50.472;19.744;2023-03-26T17:56:15;96730.02;;;6.14;67.69
50302;BME280;36550;50.472;19.744;2023-03-26T17:59:01;96730.74;;;6.04;68.23
50302;BME280;36550;50.472;19.744;2023-03-26T18:01:55;96726.44;;;5.86;67.51
50302;BME280;36550;50.472;19.744;2023-03-26T18:04:41;96728.69;;;5.75;67.39
50302;BME280;36550;50.472;19.744;2023-03-26T18:10:15;96729.35;;;5.67;67.76
50302;BME280;36550;50.472;19.744;2023-03-26T18:16:20;96731.08;;;5.68;68.44
50302;BME280;36550;50.472;19.744;2023-03-26T18:19:14;96732.79;;;5.71;68.80
50302;BME280;36550;50.472;19.744;2023-03-26T18:22:02;96730.77;;;5.72;68.76
50302;BME280;36550;50.472;19.744;2023-03-26T18:24:46;96726.86;;;5.72;68.71
50302;BME280;36550;50.472;19.744;2023-03-26T18:27:38;96726.63;;;5.70;68.59
50302;BME280;36550;50.472;19.744;2023-03-26T18:30:23;96723.43;;;5.63;68.42
50302;BME280;36550;50.472;19.744;2023-03-26T18:33:12;96717.45;;;5.57;68.73
50302;BME280;36550;50.472;19.744;2023-03-26T18:35:57;96723.00;;;5.53;68.79
50302;BME280;36550;50.472;19.744;2023-03-26T18:38:41;96720.80;;;5.49;69.01
50302;BME280;36550;50.472;19.744;2023-03-26T18:41:26;96718.38;;;5.45;69.14
50302;BME280;36550;50.472;19.744;2023-03-26T18:44:16;96714.63;;;5.44;69.17
50302;BME280;36550;50.472;19.744;2023-03-26T18:47:03;96712.12;;;5.44;69.34
50302;BME280;36550;50.472;19.744;2023-03-26T18:49:50;96710.34;;;5.38;69.21
50302;BME280;36550;50.472;19.744;2023-03-26T18:52:36;96713.53;;;5.30;69.37
50302;BME280;36550;50.472;19.744;2023-03-26T18:55:20;96707.96;;;5.18;69.33
50302;BME280;36550;50.472;19.744;2023-03-26T19:01:01;96705.64;;;4.96;69.60
50302;BME280;36550;50.472;19.744;2023-03-26T19:03:46;96706.15;;;4.86;69.67
50302;BME280;36550;50.472;19.744;2023-03-26T19:06:30;96701.63;;;4.76;69.51
50302;BME280;36550;50.472;19.744;2023-03-26T19:09:18;96705.73;;;4.65;69.98
50302;BME280;36550;50.472;19.744;2023-03-26T19:12:03;96705.85;;;4.59;70.06
50302;BME280;36550;50.472;19.744;2023-03-26T19:15:04;96707.81;;;4.54;70.30
50302;BME280;36550;50.472;19.744;2023-03-26T19:17:51;96706.39;;;4.50;70.41
50302;BME280;36550;50.472;19.744;2023-03-26T19:23:28;96718.13;;;4.40;70.14
50302;BME280;36550;50.472;19.744;2023-03-26T19:26:15;96711.48;;;4.36;70.43
50302;BME280;36550;50.472;19.744;2023-03-26T19:29:00;96703.80;;;4.29;70.18
50302;BME280;36550;50.472;19.744;2023-03-26T19:31:49;96704.48;;;4.26;70.25
50302;BME280;36550;50.472;19.744;2023-03-26T19:34:42;96700.79;;;4.26;70.59
50302;BME280;36550;50.472;19.744;2023-03-26T19:37:27;96701.39;;;4.31;71.07
50302;BME280;36550;50.472;19.744;2023-03-26T19:40:16;96699.03;;;4.34;72.51
50302;BME280;36550;50.472;19.744;2023-03-26T19:43:01;96699.80;;;4.40;73.28
50302;BME280;36550;50.472;19.744;2023-03-26T19:45:45;96694.73;;;4.49;74.03
50302;BME280;36550;50.472;19.744;2023-03-26T19:48:32;96694.02;;;4.57;75.70
50302;BME280;36550;50.472;19.744;2023-03-26T19:51:18;96686.61;;;4.66;76.73
50302;BME280;36550;50.472;19.744;2023-03-26T19:54:22;96680.70;;;4.76;75.24
50302;BME280;36550;50.472;19.744;2023-03-26T19:57:13;96674.09;;;4.90;74.85
50302;BME280;36550;50.472;19.744;2023-03-26T19:59:57;96666.24;;;5.01;74.80